Terminal Aerodrome Forecast
Issued by NWS

Home | Current Version | Previous Version | Graphics & Text | Print | Product List | Glossary On
Versions: 1 2 3 4 5 6 7 8 9 10 11 12 13 14 15 16 17 18 19 20
000
FTUS43 KMPX 301138
TAFRWF
TAF
KRWF 301138Z 3012/0112 35004KT P6SM SKC
      TEMPO 3012/3014 4SM BR
     FM301500 04006KT P6SM SCT060
     FM010200 09005KT P6SM BKN150=

USA.gov is the U.S. government's official web portal to all federal, state and local government web resources and services.